Willow Valley, Indiana
Current Conditions -  °F | °C
As of 10:35 PM on Tuesday 21 Oct 2014 (Local Time) from KDCY Reporting Station
Clear Clear  
Wind Chill: 43°   Ceiling: Unl
Heat Index: 46°   Visibility: 10mi
Dew Point: 43°   Wind: 7mph
Humidity: 88%   Direction: 20°NNE
Pressure: 30.19"   Gusts: NA
Location:  38.6262°N, 86.7615°W
Report Text: KDCY 220335Z AUTO 02006KT 10SM CLR 08/06 A3019 RMK AO2 T00800061
Loading
Personal Weather Stations






























Interactive Weather Map
Tropical Storm Tracking
New forecast layout! Learn more

10-Day Weather Forecast

Advertisements
Track Severe Weather on mobile